sensor_id;sensor_type;location;lat;lon;timestamp;P1;durP1;ratioP1;P2;durP2;ratioP2
908;SDS011;441;51.192;6.788;2024-02-26T00:01:44;16.40;;;15.90;;
908;SDS011;441;51.192;6.788;2024-02-26T00:04:11;16.33;;;15.83;;
908;SDS011;441;51.192;6.788;2024-02-26T00:06:38;16.10;;;15.60;;
908;SDS011;441;51.192;6.788;2024-02-26T00:09:06;16.83;;;16.33;;
908;SDS011;441;51.192;6.788;2024-02-26T00:11:33;15.80;;;15.40;;
908;SDS011;441;51.192;6.788;2024-02-26T00:14:02;16.17;;;15.70;;
908;SDS011;441;51.192;6.788;2024-02-26T00:16:30;15.50;;;15.10;;
908;SDS011;441;51.192;6.788;2024-02-26T00:18:57;16.30;;;15.80;;
908;SDS011;441;51.192;6.788;2024-02-26T00:21:24;17.13;;;16.63;;
908;SDS011;441;51.192;6.788;2024-02-26T00:23:52;15.87;;;15.47;;
908;SDS011;441;51.192;6.788;2024-02-26T00:26:19;16.20;;;15.70;;
908;SDS011;441;51.192;6.788;2024-02-26T00:28:45;16.10;;;15.60;;
908;SDS011;441;51.192;6.788;2024-02-26T00:31:12;16.53;;;16.03;;
908;SDS011;441;51.192;6.788;2024-02-26T00:33:40;15.93;;;15.43;;
908;SDS011;441;51.192;6.788;2024-02-26T00:36:07;16.23;;;15.77;;
908;SDS011;441;51.192;6.788;2024-02-26T00:38:34;15.80;;;15.40;;
908;SDS011;441;51.192;6.788;2024-02-26T00:41:03;16.33;;;15.83;;
908;SDS011;441;51.192;6.788;2024-02-26T00:43:29;16.30;;;15.70;;
908;SDS011;441;51.192;6.788;2024-02-26T00:45:56;17.10;;;16.57;;
908;SDS011;441;51.192;6.788;2024-02-26T00:48:23;20.13;;;19.53;;
908;SDS011;441;51.192;6.788;2024-02-26T00:50:52;19.13;;;18.63;;
908;SDS011;441;51.192;6.788;2024-02-26T00:53:18;19.40;;;18.80;;
908;SDS011;441;51.192;6.788;2024-02-26T00:55:45;15.90;;;15.50;;
908;SDS011;441;51.192;6.788;2024-02-26T00:58:12;15.40;;;15.00;;
908;SDS011;441;51.192;6.788;2024-02-26T01:00:38;16.30;;;15.80;;
908;SDS011;441;51.192;6.788;2024-02-26T01:03:05;15.80;;;15.40;;
908;SDS011;441;51.192;6.788;2024-02-26T01:05:32;16.40;;;15.90;;
908;SDS011;441;51.192;6.788;2024-02-26T01:08:00;15.60;;;15.10;;
908;SDS011;441;51.192;6.788;2024-02-26T01:10:27;15.50;;;15.10;;
908;SDS011;441;51.192;6.788;2024-02-26T01:12:54;16.27;;;15.77;;
908;SDS011;441;51.192;6.788;2024-02-26T01:15:21;16.60;;;16.10;;
908;SDS011;441;51.192;6.788;2024-02-26T01:17:48;16.23;;;15.63;;
908;SDS011;441;51.192;6.788;2024-02-26T01:20:15;16.57;;;16.13;;
908;SDS011;441;51.192;6.788;2024-02-26T01:22:42;16.60;;;16.10;;
908;SDS011;441;51.192;6.788;2024-02-26T01:25:11;16.10;;;15.60;;
908;SDS011;441;51.192;6.788;2024-02-26T01:27:38;17.50;;;16.80;;
908;SDS011;441;51.192;6.788;2024-02-26T01:30:06;16.30;;;15.80;;
908;SDS011;441;51.192;6.788;2024-02-26T01:32:34;15.80;;;15.40;;
908;SDS011;441;51.192;6.788;2024-02-26T01:35:01;16.47;;;15.97;;
908;SDS011;441;51.192;6.788;2024-02-26T01:37:28;17.07;;;16.57;;
908;SDS011;441;51.192;6.788;2024-02-26T01:39:54;17.00;;;16.50;;
908;SDS011;441;51.192;6.788;2024-02-26T01:42:22;15.60;;;15.20;;
908;SDS011;441;51.192;6.788;2024-02-26T01:44:49;15.60;;;15.20;;
908;SDS011;441;51.192;6.788;2024-02-26T01:47:16;16.23;;;15.83;;
908;SDS011;441;51.192;6.788;2024-02-26T01:49:43;15.97;;;15.53;;
908;SDS011;441;51.192;6.788;2024-02-26T01:52:10;15.63;;;15.23;;
908;SDS011;441;51.192;6.788;2024-02-26T01:54:37;15.47;;;15.07;;
908;SDS011;441;51.192;6.788;2024-02-26T01:57:05;15.43;;;15.03;;
908;SDS011;441;51.192;6.788;2024-02-26T01:59:34;16.30;;;15.80;;
908;SDS011;441;51.192;6.788;2024-02-26T02:02:01;15.87;;;15.47;;
908;SDS011;441;51.192;6.788;2024-02-26T02:04:31;15.80;;;15.33;;
908;SDS011;441;51.192;6.788;2024-02-26T02:06:58;15.87;;;15.37;;
908;SDS011;441;51.192;6.788;2024-02-26T02:09:27;16.63;;;16.13;;
908;SDS011;441;51.192;6.788;2024-02-26T02:11:54;15.67;;;15.27;;
908;SDS011;441;51.192;6.788;2024-02-26T02:14:21;15.70;;;15.30;;
908;SDS011;441;51.192;6.788;2024-02-26T02:16:50;16.10;;;15.60;;
908;SDS011;441;51.192;6.788;2024-02-26T02:19:16;16.57;;;16.07;;
908;SDS011;441;51.192;6.788;2024-02-26T02:21:44;15.70;;;15.30;;
908;SDS011;441;51.192;6.788;2024-02-26T02:24:11;15.30;;;14.90;;
908;SDS011;441;51.192;6.788;2024-02-26T02:26:38;16.30;;;15.80;;
908;SDS011;441;51.192;6.788;2024-02-26T02:29:05;16.30;;;15.80;;
908;SDS011;441;51.192;6.788;2024-02-26T02:31:34;16.10;;;15.60;;
908;SDS011;441;51.192;6.788;2024-02-26T02:34:01;15.30;;;14.90;;
908;SDS011;441;51.192;6.788;2024-02-26T02:36:28;14.83;;;14.43;;
908;SDS011;441;51.192;6.788;2024-02-26T02:38:56;15.90;;;15.50;;
908;SDS011;441;51.192;6.788;2024-02-26T02:41:22;16.20;;;15.70;;
908;SDS011;441;51.192;6.788;2024-02-26T02:43:51;16.17;;;15.67;;
908;SDS011;441;51.192;6.788;2024-02-26T02:46:18;15.97;;;15.47;;
908;SDS011;441;51.192;6.788;2024-02-26T02:48:45;16.60;;;16.10;;
908;SDS011;441;51.192;6.788;2024-02-26T02:51:11;15.20;;;14.80;;
908;SDS011;441;51.192;6.788;2024-02-26T02:53:38;15.90;;;15.50;;
908;SDS011;441;51.192;6.788;2024-02-26T02:56:06;16.00;;;15.50;;
908;SDS011;441;51.192;6.788;2024-02-26T02:58:33;15.80;;;15.40;;
908;SDS011;441;51.192;6.788;2024-02-26T03:00:59;15.70;;;15.30;;
908;SDS011;441;51.192;6.788;2024-02-26T03:03:26;16.33;;;15.83;;
908;SDS011;441;51.192;6.788;2024-02-26T03:05:53;16.30;;;15.80;;
908;SDS011;441;51.192;6.788;2024-02-26T03:08:21;15.97;;;15.57;;
908;SDS011;441;51.192;6.788;2024-02-26T03:10:48;16.40;;;15.90;;
908;SDS011;441;51.192;6.788;2024-02-26T03:13:16;15.60;;;15.20;;
908;SDS011;441;51.192;6.788;2024-02-26T03:15:43;16.13;;;15.63;;
908;SDS011;441;51.192;6.788;2024-02-26T03:18:10;17.43;;;16.93;;
908;SDS011;441;51.192;6.788;2024-02-26T03:20:37;16.87;;;16.27;;
908;SDS011;441;51.192;6.788;2024-02-26T03:23:03;16.60;;;16.10;;
908;SDS011;441;51.192;6.788;2024-02-26T03:25:30;16.97;;;16.47;;
908;SDS011;441;51.192;6.788;2024-02-26T03:27:57;15.30;;;14.90;;
908;SDS011;441;51.192;6.788;2024-02-26T03:30:25;15.83;;;15.40;;
908;SDS011;441;51.192;6.788;2024-02-26T03:32:52;16.20;;;15.70;;
908;SDS011;441;51.192;6.788;2024-02-26T03:35:19;16.73;;;16.23;;
908;SDS011;441;51.192;6.788;2024-02-26T03:37:46;16.33;;;15.93;;
908;SDS011;441;51.192;6.788;2024-02-26T03:40:15;15.93;;;15.53;;
908;SDS011;441;51.192;6.788;2024-02-26T03:42:43;17.17;;;16.67;;
908;SDS011;441;51.192;6.788;2024-02-26T03:45:10;17.27;;;16.77;;
908;SDS011;441;51.192;6.788;2024-02-26T03:47:38;17.10;;;16.60;;
908;SDS011;441;51.192;6.788;2024-02-26T03:50:05;16.20;;;15.70;;
908;SDS011;441;51.192;6.788;2024-02-26T03:52:33;16.20;;;15.70;;
908;SDS011;441;51.192;6.788;2024-02-26T03:55:00;16.60;;;16.10;;
908;SDS011;441;51.192;6.788;2024-02-26T03:57:27;17.00;;;16.50;;
908;SDS011;441;51.192;6.788;2024-02-26T03:59:53;16.60;;;16.10;;
908;SDS011;441;51.192;6.788;2024-02-26T04:02:21;16.83;;;16.33;;
908;SDS011;441;51.192;6.788;2024-02-26T04:04:49;16.13;;;15.63;;
908;SDS011;441;51.192;6.788;2024-02-26T04:07:16;17.27;;;16.70;;
908;SDS011;441;51.192;6.788;2024-02-26T04:09:42;17.17;;;16.67;;
908;SDS011;441;51.192;6.788;2024-02-26T04:12:09;16.80;;;16.30;;
908;SDS011;441;51.192;6.788;2024-02-26T04:14:36;16.63;;;16.13;;
908;SDS011;441;51.192;6.788;2024-02-26T04:17:03;17.00;;;16.50;;
908;SDS011;441;51.192;6.788;2024-02-26T04:19:29;17.00;;;16.50;;
908;SDS011;441;51.192;6.788;2024-02-26T04:21:57;17.30;;;16.70;;
908;SDS011;441;51.192;6.788;2024-02-26T04:24:25;17.20;;;16.70;;
908;SDS011;441;51.192;6.788;2024-02-26T04:26:52;16.77;;;16.27;;
908;SDS011;441;51.192;6.788;2024-02-26T04:29:18;17.60;;;17.10;;
908;SDS011;441;51.192;6.788;2024-02-26T04:31:45;16.93;;;16.43;;
908;SDS011;441;51.192;6.788;2024-02-26T04:34:13;17.13;;;16.63;;
908;SDS011;441;51.192;6.788;2024-02-26T04:36:39;16.73;;;16.23;;
908;SDS011;441;51.192;6.788;2024-02-26T04:39:08;17.80;;;17.20;;
908;SDS011;441;51.192;6.788;2024-02-26T04:41:36;17.37;;;16.87;;
908;SDS011;441;51.192;6.788;2024-02-26T04:44:03;17.37;;;16.87;;
908;SDS011;441;51.192;6.788;2024-02-26T04:46:29;17.30;;;16.80;;
908;SDS011;441;51.192;6.788;2024-02-26T04:48:56;17.30;;;16.80;;
908;SDS011;441;51.192;6.788;2024-02-26T04:51:23;17.47;;;16.87;;
908;SDS011;441;51.192;6.788;2024-02-26T04:53:50;18.07;;;17.57;;
908;SDS011;441;51.192;6.788;2024-02-26T04:56:19;17.80;;;17.30;;
908;SDS011;441;51.192;6.788;2024-02-26T04:58:46;17.27;;;16.77;;
908;SDS011;441;51.192;6.788;2024-02-26T05:01:13;22.87;;;22.17;;
908;SDS011;441;51.192;6.788;2024-02-26T05:03:41;22.83;;;22.13;;
908;SDS011;441;51.192;6.788;2024-02-26T05:06:07;18.97;;;18.37;;
908;SDS011;441;51.192;6.788;2024-02-26T05:08:35;17.67;;;17.17;;
908;SDS011;441;51.192;6.788;2024-02-26T05:11:03;18.20;;;17.60;;
908;SDS011;441;51.192;6.788;2024-02-26T05:13:31;18.30;;;17.70;;
908;SDS011;441;51.192;6.788;2024-02-26T05:15:58;18.33;;;17.73;;
908;SDS011;441;51.192;6.788;2024-02-26T05:18:25;18.17;;;17.57;;
908;SDS011;441;51.192;6.788;2024-02-26T05:20:51;18.57;;;17.97;;
908;SDS011;441;51.192;6.788;2024-02-26T05:23:18;18.30;;;17.80;;
908;SDS011;441;51.192;6.788;2024-02-26T05:25:45;18.30;;;17.70;;
908;SDS011;441;51.192;6.788;2024-02-26T05:28:13;17.97;;;17.47;;
908;SDS011;441;51.192;6.788;2024-02-26T05:30:41;17.60;;;16.97;;
908;SDS011;441;51.192;6.788;2024-02-26T05:33:08;18.20;;;17.70;;
908;SDS011;441;51.192;6.788;2024-02-26T05:35:35;18.47;;;17.87;;
908;SDS011;441;51.192;6.788;2024-02-26T05:38:01;18.87;;;18.27;;
908;SDS011;441;51.192;6.788;2024-02-26T05:40:28;18.20;;;17.60;;
908;SDS011;441;51.192;6.788;2024-02-26T05:42:56;18.33;;;17.73;;
908;SDS011;441;51.192;6.788;2024-02-26T05:45:22;17.50;;;17.00;;
908;SDS011;441;51.192;6.788;2024-02-26T05:47:50;18.10;;;17.50;;
908;SDS011;441;51.192;6.788;2024-02-26T05:50:17;21.23;;;20.53;;
908;SDS011;441;51.192;6.788;2024-02-26T05:52:44;18.97;;;18.37;;
908;SDS011;441;51.192;6.788;2024-02-26T05:55:10;19.10;;;18.30;;
908;SDS011;441;51.192;6.788;2024-02-26T05:57:38;18.40;;;17.70;;
908;SDS011;441;51.192;6.788;2024-02-26T06:00:05;19.63;;;18.40;;
908;SDS011;441;51.192;6.788;2024-02-26T06:02:32;22.03;;;19.93;;
908;SDS011;441;51.192;6.788;2024-02-26T06:05:00;20.70;;;19.50;;
908;SDS011;441;51.192;6.788;2024-02-26T06:07:28;22.23;;;20.43;;
908;SDS011;441;51.192;6.788;2024-02-26T06:09:54;22.10;;;19.93;;
908;SDS011;441;51.192;6.788;2024-02-26T06:12:21;21.80;;;20.30;;
908;SDS011;441;51.192;6.788;2024-02-26T06:14:48;20.57;;;19.50;;
908;SDS011;441;51.192;6.788;2024-02-26T06:17:15;21.00;;;19.37;;
908;SDS011;441;51.192;6.788;2024-02-26T06:19:41;20.40;;;19.50;;
908;SDS011;441;51.192;6.788;2024-02-26T06:22:09;20.87;;;19.60;;
908;SDS011;441;51.192;6.788;2024-02-26T06:24:36;20.03;;;19.10;;
908;SDS011;441;51.192;6.788;2024-02-26T06:27:03;20.10;;;18.90;;
908;SDS011;441;51.192;6.788;2024-02-26T06:29:30;21.47;;;19.50;;
908;SDS011;441;51.192;6.788;2024-02-26T06:31:57;19.80;;;19.00;;
908;SDS011;441;51.192;6.788;2024-02-26T06:34:23;20.83;;;19.87;;
908;SDS011;441;51.192;6.788;2024-02-26T06:36:50;19.70;;;18.90;;
908;SDS011;441;51.192;6.788;2024-02-26T06:39:18;20.63;;;19.43;;
908;SDS011;441;51.192;6.788;2024-02-26T06:41:45;19.90;;;19.00;;
908;SDS011;441;51.192;6.788;2024-02-26T06:44:12;19.20;;;18.20;;
908;SDS011;441;51.192;6.788;2024-02-26T06:46:39;18.40;;;17.60;;
908;SDS011;441;51.192;6.788;2024-02-26T06:49:06;20.37;;;19.07;;
908;SDS011;441;51.192;6.788;2024-02-26T06:51:33;18.83;;;18.17;;
908;SDS011;441;51.192;6.788;2024-02-26T06:53:59;19.33;;;18.33;;
908;SDS011;441;51.192;6.788;2024-02-26T06:56:27;20.20;;;18.80;;
908;SDS011;441;51.192;6.788;2024-02-26T06:58:54;19.70;;;19.00;;
908;SDS011;441;51.192;6.788;2024-02-26T07:01:21;19.90;;;18.90;;
908;SDS011;441;51.192;6.788;2024-02-26T07:03:47;20.90;;;19.27;;
908;SDS011;441;51.192;6.788;2024-02-26T07:06:14;19.33;;;18.40;;
908;SDS011;441;51.192;6.788;2024-02-26T07:08:41;19.57;;;18.77;;
908;SDS011;441;51.192;6.788;2024-02-26T07:11:07;18.40;;;17.80;;
908;SDS011;441;51.192;6.788;2024-02-26T07:13:36;20.83;;;19.90;;
908;SDS011;441;51.192;6.788;2024-02-26T07:16:03;19.73;;;18.83;;
908;SDS011;441;51.192;6.788;2024-02-26T07:18:30;19.43;;;18.63;;
908;SDS011;441;51.192;6.788;2024-02-26T07:20:57;19.33;;;18.00;;
908;SDS011;441;51.192;6.788;2024-02-26T07:23:23;19.97;;;18.87;;
908;SDS011;441;51.192;6.788;2024-02-26T07:25:50;19.90;;;19.10;;
908;SDS011;441;51.192;6.788;2024-02-26T07:28:17;19.47;;;18.77;;
908;SDS011;441;51.192;6.788;2024-02-26T07:30:46;19.40;;;18.63;;
908;SDS011;441;51.192;6.788;2024-02-26T07:33:13;19.60;;;18.90;;
908;SDS011;441;51.192;6.788;2024-02-26T07:35:39;20.27;;;19.47;;
908;SDS011;441;51.192;6.788;2024-02-26T07:38:06;18.53;;;17.93;;
908;SDS011;441;51.192;6.788;2024-02-26T07:40:33;19.00;;;18.30;;
908;SDS011;441;51.192;6.788;2024-02-26T07:42:59;19.70;;;19.00;;
908;SDS011;441;51.192;6.788;2024-02-26T07:45:26;19.47;;;18.77;;
908;SDS011;441;51.192;6.788;2024-02-26T07:47:54;19.50;;;18.70;;
908;SDS011;441;51.192;6.788;2024-02-26T07:50:21;19.70;;;18.90;;
908;SDS011;441;51.192;6.788;2024-02-26T07:52:47;20.50;;;19.60;;
908;SDS011;441;51.192;6.788;2024-02-26T07:55:16;20.03;;;19.33;;
908;SDS011;441;51.192;6.788;2024-02-26T07:57:44;19.63;;;19.00;;
908;SDS011;441;51.192;6.788;2024-02-26T08:00:11;19.87;;;19.13;;
908;SDS011;441;51.192;6.788;2024-02-26T08:02:41;19.80;;;19.00;;
908;SDS011;441;51.192;6.788;2024-02-26T08:05:09;20.23;;;19.43;;
908;SDS011;441;51.192;6.788;2024-02-26T08:07:36;19.77;;;18.97;;
908;SDS011;441;51.192;6.788;2024-02-26T08:10:03;19.60;;;18.90;;
908;SDS011;441;51.192;6.788;2024-02-26T08:12:30;19.20;;;18.50;;
908;SDS011;441;51.192;6.788;2024-02-26T08:14:57;19.93;;;19.03;;
908;SDS011;441;51.192;6.788;2024-02-26T08:17:24;20.10;;;19.40;;
908;SDS011;441;51.192;6.788;2024-02-26T08:19:52;19.20;;;18.50;;
908;SDS011;441;51.192;6.788;2024-02-26T08:22:20;20.77;;;20.03;;
908;SDS011;441;51.192;6.788;2024-02-26T08:24:46;20.73;;;20.03;;
908;SDS011;441;51.192;6.788;2024-02-26T08:27:13;19.50;;;18.80;;
908;SDS011;441;51.192;6.788;2024-02-26T08:29:40;20.50;;;19.70;;
908;SDS011;441;51.192;6.788;2024-02-26T08:32:07;20.37;;;19.50;;
908;SDS011;441;51.192;6.788;2024-02-26T08:34:33;21.00;;;20.10;;
908;SDS011;441;51.192;6.788;2024-02-26T08:37:00;20.73;;;19.93;;
908;SDS011;441;51.192;6.788;2024-02-26T08:39:28;21.13;;;20.43;;
908;SDS011;441;51.192;6.788;2024-02-26T08:41:55;20.50;;;19.80;;
908;SDS011;441;51.192;6.788;2024-02-26T08:44:21;20.30;;;19.50;;
908;SDS011;441;51.192;6.788;2024-02-26T08:46:48;20.70;;;19.90;;
908;SDS011;441;51.192;6.788;2024-02-26T08:49:15;20.43;;;19.73;;
908;SDS011;441;51.192;6.788;2024-02-26T08:51:42;19.13;;;18.53;;
908;SDS011;441;51.192;6.788;2024-02-26T08:54:10;20.50;;;19.73;;
908;SDS011;441;51.192;6.788;2024-02-26T08:56:38;18.97;;;18.27;;
908;SDS011;441;51.192;6.788;2024-02-26T08:59:05;19.83;;;19.13;;
908;SDS011;441;51.192;6.788;2024-02-26T09:01:31;19.70;;;19.10;;
908;SDS011;441;51.192;6.788;2024-02-26T09:03:58;21.03;;;20.30;;
908;SDS011;441;51.192;6.788;2024-02-26T09:06:25;19.50;;;18.80;;
908;SDS011;441;51.192;6.788;2024-02-26T09:08:52;21.23;;;20.13;;
908;SDS011;441;51.192;6.788;2024-02-26T09:11:18;19.73;;;19.00;;
908;SDS011;441;51.192;6.788;2024-02-26T09:13:46;20.67;;;19.87;;
908;SDS011;441;51.192;6.788;2024-02-26T09:16:13;20.50;;;19.80;;
908;SDS011;441;51.192;6.788;2024-02-26T09:18:40;20.60;;;19.90;;
908;SDS011;441;51.192;6.788;2024-02-26T09:21:06;19.70;;;19.00;;
908;SDS011;441;51.192;6.788;2024-02-26T09:23:33;19.63;;;18.83;;
908;SDS011;441;51.192;6.788;2024-02-26T09:26:00;20.60;;;19.90;;
908;SDS011;441;51.192;6.788;2024-02-26T09:28:27;20.20;;;19.47;;
908;SDS011;441;51.192;6.788;2024-02-26T09:30:58;19.20;;;18.60;;
908;SDS011;441;51.192;6.788;2024-02-26T09:33:24;19.97;;;19.30;;
908;SDS011;441;51.192;6.788;2024-02-26T09:35:51;19.40;;;18.80;;
908;SDS011;441;51.192;6.788;2024-02-26T09:38:18;20.70;;;19.70;;
908;SDS011;441;51.192;6.788;2024-02-26T09:40:44;18.00;;;17.43;;
908;SDS011;441;51.192;6.788;2024-02-26T09:43:13;20.13;;;19.30;;
908;SDS011;441;51.192;6.788;2024-02-26T09:45:40;20.00;;;19.40;;
908;SDS011;441;51.192;6.788;2024-02-26T09:48:09;20.20;;;19.40;;
908;SDS011;441;51.192;6.788;2024-02-26T09:50:38;20.23;;;19.53;;
908;SDS011;441;51.192;6.788;2024-02-26T09:53:07;20.63;;;19.93;;
908;SDS011;441;51.192;6.788;2024-02-26T09:55:35;19.37;;;18.77;;
908;SDS011;441;51.192;6.788;2024-02-26T09:58:02;19.80;;;19.20;;
908;SDS011;441;51.192;6.788;2024-02-26T10:00:32;21.47;;;20.67;;
908;SDS011;441;51.192;6.788;2024-02-26T10:03:04;20.17;;;19.47;;
908;SDS011;441;51.192;6.788;2024-02-26T10:05:33;20.53;;;19.83;;
908;SDS011;441;51.192;6.788;2024-02-26T10:08:01;22.40;;;21.60;;
908;SDS011;441;51.192;6.788;2024-02-26T10:10:28;21.07;;;20.37;;
908;SDS011;441;51.192;6.788;2024-02-26T10:12:56;21.57;;;20.87;;
908;SDS011;441;51.192;6.788;2024-02-26T10:15:24;21.73;;;20.93;;
908;SDS011;441;51.192;6.788;2024-02-26T10:17:51;20.37;;;19.67;;
908;SDS011;441;51.192;6.788;2024-02-26T10:20:18;21.37;;;20.60;;
908;SDS011;441;51.192;6.788;2024-02-26T10:22:48;20.93;;;20.23;;
908;SDS011;441;51.192;6.788;2024-02-26T10:25:15;19.30;;;18.70;;
908;SDS011;441;51.192;6.788;2024-02-26T10:27:42;20.40;;;19.70;;
908;SDS011;441;51.192;6.788;2024-02-26T10:30:19;20.90;;;20.20;;
908;SDS011;441;51.192;6.788;2024-02-26T10:32:48;20.23;;;19.53;;
908;SDS011;441;51.192;6.788;2024-02-26T10:35:15;21.13;;;20.43;;
908;SDS011;441;51.192;6.788;2024-02-26T10:37:43;21.00;;;20.27;;
908;SDS011;441;51.192;6.788;2024-02-26T10:40:11;20.53;;;19.83;;
908;SDS011;441;51.192;6.788;2024-02-26T10:42:39;20.47;;;19.60;;
908;SDS011;441;51.192;6.788;2024-02-26T10:45:06;20.13;;;19.43;;
908;SDS011;441;51.192;6.788;2024-02-26T10:47:34;19.93;;;19.23;;
908;SDS011;441;51.192;6.788;2024-02-26T10:50:01;20.53;;;19.73;;
908;SDS011;441;51.192;6.788;2024-02-26T10:52:30;21.23;;;20.50;;
908;SDS011;441;51.192;6.788;2024-02-26T10:54:59;20.23;;;19.53;;
908;SDS011;441;51.192;6.788;2024-02-26T10:57:28;20.57;;;19.87;;
908;SDS011;441;51.192;6.788;2024-02-26T10:59:57;21.00;;;20.10;;
908;SDS011;441;51.192;6.788;2024-02-26T11:02:25;20.43;;;19.73;;
908;SDS011;441;51.192;6.788;2024-02-26T11:04:52;21.03;;;20.23;;
908;SDS011;441;51.192;6.788;2024-02-26T11:07:20;22.20;;;21.40;;
908;SDS011;441;51.192;6.788;2024-02-26T11:09:48;20.23;;;19.53;;
908;SDS011;441;51.192;6.788;2024-02-26T11:12:17;21.00;;;20.20;;
908;SDS011;441;51.192;6.788;2024-02-26T11:14:46;20.60;;;19.90;;
908;SDS011;441;51.192;6.788;2024-02-26T11:17:14;19.63;;;19.03;;
908;SDS011;441;51.192;6.788;2024-02-26T11:19:42;19.80;;;19.20;;
908;SDS011;441;51.192;6.788;2024-02-26T11:22:10;20.77;;;20.07;;
908;SDS011;441;51.192;6.788;2024-02-26T11:24:37;20.83;;;20.13;;
908;SDS011;441;51.192;6.788;2024-02-26T11:27:06;20.03;;;19.37;;
908;SDS011;441;51.192;6.788;2024-02-26T11:29:38;20.23;;;19.60;;
908;SDS011;441;51.192;6.788;2024-02-26T11:32:10;20.77;;;20.07;;
908;SDS011;441;51.192;6.788;2024-02-26T11:34:37;20.43;;;19.83;;
908;SDS011;441;51.192;6.788;2024-02-26T11:37:11;20.27;;;19.57;;
908;SDS011;441;51.192;6.788;2024-02-26T11:39:39;20.17;;;19.47;;
908;SDS011;441;51.192;6.788;2024-02-26T11:42:07;20.93;;;20.23;;
908;SDS011;441;51.192;6.788;2024-02-26T11:44:36;20.63;;;19.93;;
908;SDS011;441;51.192;6.788;2024-02-26T11:47:13;20.10;;;19.50;;
908;SDS011;441;51.192;6.788;2024-02-26T11:49:43;21.17;;;20.43;;
908;SDS011;441;51.192;6.788;2024-02-26T11:52:10;20.60;;;19.70;;
908;SDS011;441;51.192;6.788;2024-02-26T11:54:39;20.20;;;19.57;;
908;SDS011;441;51.192;6.788;2024-02-26T11:57:19;20.20;;;19.50;;
908;SDS011;441;51.192;6.788;2024-02-26T11:59:50;19.90;;;19.20;;
908;SDS011;441;51.192;6.788;2024-02-26T12:05:23;19.13;;;18.53;;
908;SDS011;441;51.192;6.788;2024-02-26T12:07:53;19.90;;;19.30;;
908;SDS011;441;51.192;6.788;2024-02-26T12:10:22;20.27;;;19.57;;
908;SDS011;441;51.192;6.788;2024-02-26T12:12:54;20.30;;;19.60;;
908;SDS011;441;51.192;6.788;2024-02-26T12:15:24;19.17;;;18.57;;
908;SDS011;441;51.192;6.788;2024-02-26T12:17:59;19.90;;;19.30;;
908;SDS011;441;51.192;6.788;2024-02-26T12:20:27;21.27;;;20.37;;
908;SDS011;441;51.192;6.788;2024-02-26T12:22:54;19.90;;;19.20;;
908;SDS011;441;51.192;6.788;2024-02-26T12:25:22;20.07;;;19.37;;
908;SDS011;441;51.192;6.788;2024-02-26T12:27:50;19.50;;;18.90;;
908;SDS011;441;51.192;6.788;2024-02-26T12:30:17;19.10;;;18.50;;
908;SDS011;441;51.192;6.788;2024-02-26T12:32:44;19.67;;;19.07;;
908;SDS011;441;51.192;6.788;2024-02-26T12:35:12;19.83;;;19.13;;
908;SDS011;441;51.192;6.788;2024-02-26T12:37:39;20.17;;;19.40;;
908;SDS011;441;51.192;6.788;2024-02-26T12:40:07;19.90;;;19.27;;
908;SDS011;441;51.192;6.788;2024-02-26T12:42:35;20.57;;;19.87;;
908;SDS011;441;51.192;6.788;2024-02-26T12:45:05;20.40;;;19.70;;
908;SDS011;441;51.192;6.788;2024-02-26T12:47:34;19.40;;;18.80;;
908;SDS011;441;51.192;6.788;2024-02-26T12:50:02;21.73;;;20.97;;
908;SDS011;441;51.192;6.788;2024-02-26T12:52:31;19.57;;;18.87;;
908;SDS011;441;51.192;6.788;2024-02-26T12:54:58;20.17;;;19.57;;
908;SDS011;441;51.192;6.788;2024-02-26T12:57:25;20.50;;;19.80;;
908;SDS011;441;51.192;6.788;2024-02-26T12:59:54;20.27;;;19.50;;
908;SDS011;441;51.192;6.788;2024-02-26T13:02:20;21.20;;;20.50;;
908;SDS011;441;51.192;6.788;2024-02-26T13:04:47;20.17;;;19.50;;
908;SDS011;441;51.192;6.788;2024-02-26T13:07:14;20.63;;;19.93;;
908;SDS011;441;51.192;6.788;2024-02-26T13:09:43;21.00;;;20.30;;
908;SDS011;441;51.192;6.788;2024-02-26T13:12:12;21.50;;;20.80;;
908;SDS011;441;51.192;6.788;2024-02-26T13:14:39;21.00;;;20.30;;
908;SDS011;441;51.192;6.788;2024-02-26T13:17:06;20.70;;;20.00;;
908;SDS011;441;51.192;6.788;2024-02-26T13:19:34;22.03;;;21.23;;
908;SDS011;441;51.192;6.788;2024-02-26T13:22:04;20.40;;;19.70;;
908;SDS011;441;51.192;6.788;2024-02-26T13:24:32;20.53;;;19.83;;
908;SDS011;441;51.192;6.788;2024-02-26T13:27:00;20.80;;;20.10;;
908;SDS011;441;51.192;6.788;2024-02-26T13:29:28;20.73;;;19.93;;
908;SDS011;441;51.192;6.788;2024-02-26T13:31:55;20.30;;;19.67;;
908;SDS011;441;51.192;6.788;2024-02-26T13:34:23;20.47;;;19.80;;
908;SDS011;441;51.192;6.788;2024-02-26T13:36:51;19.73;;;19.13;;
908;SDS011;441;51.192;6.788;2024-02-26T13:39:23;20.70;;;20.00;;
908;SDS011;441;51.192;6.788;2024-02-26T13:41:51;20.90;;;20.20;;
908;SDS011;441;51.192;6.788;2024-02-26T13:44:20;20.50;;;19.90;;
908;SDS011;441;51.192;6.788;2024-02-26T13:46:47;20.37;;;19.67;;
908;SDS011;441;51.192;6.788;2024-02-26T13:49:14;21.07;;;20.27;;
908;SDS011;441;51.192;6.788;2024-02-26T13:51:41;20.67;;;19.97;;
908;SDS011;441;51.192;6.788;2024-02-26T13:54:07;20.20;;;19.50;;
908;SDS011;441;51.192;6.788;2024-02-26T13:56:35;19.67;;;18.97;;
908;SDS011;441;51.192;6.788;2024-02-26T13:59:02;20.70;;;20.00;;
908;SDS011;441;51.192;6.788;2024-02-26T14:01:30;21.27;;;20.57;;
908;SDS011;441;51.192;6.788;2024-02-26T14:03:58;20.50;;;19.80;;
908;SDS011;441;51.192;6.788;2024-02-26T14:06:26;19.87;;;19.20;;
908;SDS011;441;51.192;6.788;2024-02-26T14:08:53;20.23;;;19.53;;
908;SDS011;441;51.192;6.788;2024-02-26T14:11:20;20.10;;;19.40;;
908;SDS011;441;51.192;6.788;2024-02-26T14:13:47;20.70;;;20.00;;
908;SDS011;441;51.192;6.788;2024-02-26T14:16:13;21.67;;;20.60;;
908;SDS011;441;51.192;6.788;2024-02-26T14:18:41;21.20;;;20.50;;
908;SDS011;441;51.192;6.788;2024-02-26T14:21:10;20.67;;;19.87;;
908;SDS011;441;51.192;6.788;2024-02-26T14:23:36;20.97;;;20.20;;
908;SDS011;441;51.192;6.788;2024-02-26T14:26:03;20.47;;;19.77;;
908;SDS011;441;51.192;6.788;2024-02-26T14:28:30;20.10;;;19.40;;
908;SDS011;441;51.192;6.788;2024-02-26T14:30:58;20.50;;;19.80;;
908;SDS011;441;51.192;6.788;2024-02-26T14:33:24;20.50;;;19.80;;
908;SDS011;441;51.192;6.788;2024-02-26T14:35:52;20.03;;;19.43;;
908;SDS011;441;51.192;6.788;2024-02-26T14:38:19;20.13;;;19.43;;
908;SDS011;441;51.192;6.788;2024-02-26T14:40:46;19.97;;;19.27;;
908;SDS011;441;51.192;6.788;2024-02-26T14:43:12;20.77;;;20.07;;
908;SDS011;441;51.192;6.788;2024-02-26T14:45:40;21.00;;;20.30;;
908;SDS011;441;51.192;6.788;2024-02-26T14:48:07;20.20;;;19.50;;
908;SDS011;441;51.192;6.788;2024-02-26T14:50:35;20.00;;;19.30;;
908;SDS011;441;51.192;6.788;2024-02-26T14:53:03;20.50;;;19.80;;
908;SDS011;441;51.192;6.788;2024-02-26T14:55:30;19.73;;;19.13;;
908;SDS011;441;51.192;6.788;2024-02-26T14:57:57;20.90;;;20.20;;
908;SDS011;441;51.192;6.788;2024-02-26T15:00:24;20.50;;;19.80;;
908;SDS011;441;51.192;6.788;2024-02-26T15:02:50;21.63;;;20.83;;
908;SDS011;441;51.192;6.788;2024-02-26T15:05:19;21.73;;;20.93;;
908;SDS011;441;51.192;6.788;2024-02-26T15:07:46;20.60;;;19.90;;
908;SDS011;441;51.192;6.788;2024-02-26T15:10:14;20.70;;;20.00;;
908;SDS011;441;51.192;6.788;2024-02-26T15:12:41;20.80;;;20.10;;
908;SDS011;441;51.192;6.788;2024-02-26T15:15:08;20.63;;;19.93;;
908;SDS011;441;51.192;6.788;2024-02-26T15:17:35;21.10;;;20.30;;
908;SDS011;441;51.192;6.788;2024-02-26T15:20:01;20.53;;;19.90;;